Informes METAR cercanos


LEVC - Manises, Valencia, ESPAÑA
Distance from station: NNE 72km
Actualización: 20/11/2017 10:00
Despejado
Despejado
 Viento del calm
Viento: Calma
Temperatura: 11°C
Rocío: 4°C
Humedad: 62%
Barómetro: 1023 hPa
Resumen: Despejado
Visibility: Mas de 10 km
2017/11/20 09:00 LEVC 200900Z 00000KT CAVOK 11/04 Q1023 NOSIG
LEAL - El Altet, Alicante, ESPAÑA
Distance from station: S 70km
Actualización: 20/11/2017 10:00
Despejado
Despejado
 Viento del varies
Viento: varies 2 km/h
Temperatura: 16°C
Rocío: 11°C
Humedad: 72%
Barómetro: 1024 hPa
Resumen: Despejado
Visibility: Mas de 10 km
2017/11/20 09:00 LEAL 200900Z VRB01KT CAVOK 16/11 Q1024 NOSIG
 
LELC - San Javier, Murcia, ESPAÑA
Distance from station: SSO 188km
Actualización: 20/11/2017 10:00
Parcialmente nuboso
Parcialmente nuboso
 Viento del OSO
Viento: OSO 6 km/h
Temperatura: 13°C
Rocío: 10°C
Humedad: 82%
Barómetro: 1024 hPa
Clouds: Parcialmente nuboso
Visibility: 10 km
Cloud details: Parcialmente nuboso 518 m
2017/11/20 09:00 LELC 200900Z 25003KT 220V280 9999 SCT017 13/10 Q1024 NOSIG
LEAB - Los Llanos, Albacete, ESPAÑA
Distance from station: O 143km
Actualización: 20/11/2017 10:00
Despejado
Despejado
 Viento del varies
Viento: varies 4 km/h
Temperatura: 7°C
Rocío: -1°C
Humedad: 57%
Barómetro: 1025 hPa
Resumen: Despejado
Visibility: Mas de 10 km
2017/11/20 09:00 LEAB 200900Z VRB02KT CAVOK 07/M01 Q1025 NOSIG